sensor_id;sensor_type;location;lat;lon;timestamp;pressure;altitude;pressure_sealevel;temperature;humidity
55410;BME280;41279;43.546;16.426;2022-08-01T00:00:12;52930.88;;;-146.77;44.68
55410;BME280;41279;43.546;16.426;2022-08-01T00:02:39;52856.78;;;-146.77;45.53
55410;BME280;41279;43.546;16.426;2022-08-01T00:05:06;52860.78;;;-146.77;45.57
55410;BME280;41279;43.546;16.426;2022-08-01T00:07:32;52840.78;;;-146.77;45.33
55410;BME280;41279;43.546;16.426;2022-08-01T00:09:58;52858.78;;;-146.77;45.42
55410;BME280;41279;43.546;16.426;2022-08-01T00:12:23;52908.84;;;-146.77;45.31
55410;BME280;41279;43.546;16.426;2022-08-01T00:14:49;52896.84;;;-146.77;44.79
55410;BME280;41279;43.546;16.426;2022-08-01T00:17:14;52866.81;;;-146.77;45.11
55410;BME280;41279;43.546;16.426;2022-08-01T00:19:40;52910.84;;;-146.77;44.28
55410;BME280;41279;43.546;16.426;2022-08-01T00:22:05;52894.84;;;-146.77;44.56
55410;BME280;41279;43.546;16.426;2022-08-01T00:24:30;52882.81;;;-146.77;45.43
55410;BME280;41279;43.546;16.426;2022-08-01T00:26:56;52894.84;;;-146.77;45.41
55410;BME280;41279;43.546;16.426;2022-08-01T00:29:21;52854.78;;;-146.77;45.43
55410;BME280;41279;43.546;16.426;2022-08-01T00:31:47;52876.81;;;-146.77;45.80
55410;BME280;41279;43.546;16.426;2022-08-01T00:34:12;52858.78;;;-146.77;46.38
55410;BME280;41279;43.546;16.426;2022-08-01T00:36:37;52870.81;;;-146.77;45.93
55410;BME280;41279;43.546;16.426;2022-08-01T00:39:03;52870.81;;;-146.77;45.98
55410;BME280;41279;43.546;16.426;2022-08-01T00:41:28;52886.81;;;-146.77;45.61
55410;BME280;41279;43.546;16.426;2022-08-01T00:43:53;52866.81;;;-146.77;45.80
55410;BME280;41279;43.546;16.426;2022-08-01T00:46:19;52896.84;;;-146.77;45.03
55410;BME280;41279;43.546;16.426;2022-08-01T00:48:45;52890.84;;;-146.77;44.82
55410;BME280;41279;43.546;16.426;2022-08-01T00:51:10;52880.81;;;-146.77;45.20
55410;BME280;41279;43.546;16.426;2022-08-01T00:53:35;52864.81;;;-146.77;44.73
55410;BME280;41279;43.546;16.426;2022-08-01T00:56:01;52876.81;;;-146.77;45.17
55410;BME280;41279;43.546;16.426;2022-08-01T00:58:27;52862.81;;;-146.77;46.09
55410;BME280;41279;43.546;16.426;2022-08-01T01:00:55;52824.75;;;-146.77;45.73
55410;BME280;41279;43.546;16.426;2022-08-01T01:03:22;52872.81;;;-146.77;45.47
55410;BME280;41279;43.546;16.426;2022-08-01T01:05:56;52858.78;;;-146.77;46.05
55410;BME280;41279;43.546;16.426;2022-08-01T01:08:28;52864.81;;;-146.77;47.06
55410;BME280;41279;43.546;16.426;2022-08-01T01:11:03;52850.78;;;-146.77;46.50
55410;BME280;41279;43.546;16.426;2022-08-01T01:16:01;52918.88;;;-146.77;44.96
55410;BME280;41279;43.546;16.426;2022-08-01T01:18:37;52916.84;;;-146.77;44.28
55410;BME280;41279;43.546;16.426;2022-08-01T01:21:09;52932.88;;;-146.77;44.31
55410;BME280;41279;43.546;16.426;2022-08-01T01:29:17;52938.88;;;-146.77;44.48
55410;BME280;41279;43.546;16.426;2022-08-01T01:31:51;52906.84;;;-146.77;44.43
55410;BME280;41279;43.546;16.426;2022-08-01T01:34:22;52862.81;;;-146.77;45.97
55410;BME280;41279;43.546;16.426;2022-08-01T01:36:50;52888.84;;;-146.77;45.79
55410;BME280;41279;43.546;16.426;2022-08-01T01:39:17;52864.81;;;-146.77;45.42
55410;BME280;41279;43.546;16.426;2022-08-01T01:41:44;52870.81;;;-146.77;46.05
55410;BME280;41279;43.546;16.426;2022-08-01T01:44:11;52850.78;;;-146.77;46.16
55410;BME280;41279;43.546;16.426;2022-08-01T01:46:37;52868.81;;;-146.77;46.74
55410;BME280;41279;43.546;16.426;2022-08-01T01:49:03;52878.81;;;-146.77;45.70
55410;BME280;41279;43.546;16.426;2022-08-01T01:51:30;52908.84;;;-146.77;45.36
55410;BME280;41279;43.546;16.426;2022-08-01T01:53:57;52898.84;;;-146.77;45.59
55410;BME280;41279;43.546;16.426;2022-08-01T01:56:24;52880.81;;;-146.77;45.66
55410;BME280;41279;43.546;16.426;2022-08-01T01:58:54;52902.84;;;-146.77;46.11
55410;BME280;41279;43.546;16.426;2022-08-01T02:01:23;52878.81;;;-146.77;45.33
55410;BME280;41279;43.546;16.426;2022-08-01T02:03:51;52876.81;;;-146.77;45.35
55410;BME280;41279;43.546;16.426;2022-08-01T02:06:19;52896.84;;;-146.77;46.57
55410;BME280;41279;43.546;16.426;2022-08-01T02:08:46;52890.84;;;-146.77;46.54
55410;BME280;41279;43.546;16.426;2022-08-01T02:11:13;52844.78;;;-146.77;47.80
55410;BME280;41279;43.546;16.426;2022-08-01T02:14:01;52826.75;;;-146.77;49.10
55410;BME280;41279;43.546;16.426;2022-08-01T02:16:39;52784.72;;;-146.77;51.61
55410;BME280;41279;43.546;16.426;2022-08-01T02:19:05;52784.72;;;-146.77;52.45
55410;BME280;41279;43.546;16.426;2022-08-01T02:24:13;52794.72;;;-146.77;53.65
55410;BME280;41279;43.546;16.426;2022-08-01T02:26:44;52798.72;;;-146.77;53.11
55410;BME280;41279;43.546;16.426;2022-08-01T02:29:17;52824.75;;;-146.77;52.94
55410;BME280;41279;43.546;16.426;2022-08-01T02:31:45;52766.69;;;-146.77;53.30
55410;BME280;41279;43.546;16.426;2022-08-01T02:34:16;52802.72;;;-146.77;53.08
55410;BME280;41279;43.546;16.426;2022-08-01T02:36:43;52794.72;;;-146.77;52.04
55410;BME280;41279;43.546;16.426;2022-08-01T02:39:13;52830.75;;;-146.77;51.70
55410;BME280;41279;43.546;16.426;2022-08-01T02:41:41;52790.72;;;-146.77;51.12
55410;BME280;41279;43.546;16.426;2022-08-01T02:44:09;52808.75;;;-146.77;51.22
55410;BME280;41279;43.546;16.426;2022-08-01T02:46:40;52846.78;;;-146.77;51.70
55410;BME280;41279;43.546;16.426;2022-08-01T02:49:10;52836.78;;;-146.77;51.26
55410;BME280;41279;43.546;16.426;2022-08-01T02:51:39;52782.72;;;-146.77;51.34
55410;BME280;41279;43.546;16.426;2022-08-01T02:54:07;52858.78;;;-146.77;51.36
55410;BME280;41279;43.546;16.426;2022-08-01T02:56:33;52830.75;;;-146.77;52.44
55410;BME280;41279;43.546;16.426;2022-08-01T02:59:02;52824.75;;;-146.77;51.92
55410;BME280;41279;43.546;16.426;2022-08-01T03:01:30;52846.78;;;-146.77;51.15
55410;BME280;41279;43.546;16.426;2022-08-01T03:03:56;52798.72;;;-146.77;53.55
55410;BME280;41279;43.546;16.426;2022-08-01T03:06:23;52776.69;;;-146.77;53.58
55410;BME280;41279;43.546;16.426;2022-08-01T03:08:50;52826.75;;;-146.77;52.65
55410;BME280;41279;43.546;16.426;2022-08-01T03:11:16;52808.75;;;-146.77;52.79
55410;BME280;41279;43.546;16.426;2022-08-01T03:13:44;52848.78;;;-146.77;52.53
55410;BME280;41279;43.546;16.426;2022-08-01T03:16:11;52796.72;;;-146.77;53.18
55410;BME280;41279;43.546;16.426;2022-08-01T03:18:39;52836.78;;;-146.77;52.20
55410;BME280;41279;43.546;16.426;2022-08-01T03:21:07;52818.75;;;-146.77;52.16
55410;BME280;41279;43.546;16.426;2022-08-01T03:23:33;52822.75;;;-146.77;52.93
55410;BME280;41279;43.546;16.426;2022-08-01T03:26:01;52804.72;;;-146.77;52.62
55410;BME280;41279;43.546;16.426;2022-08-01T03:28:27;52824.75;;;-146.77;52.75
55410;BME280;41279;43.546;16.426;2022-08-01T03:30:53;52828.75;;;-146.77;53.08
55410;BME280;41279;43.546;16.426;2022-08-01T03:33:18;52770.69;;;-146.77;53.89
55410;BME280;41279;43.546;16.426;2022-08-01T03:35:48;52792.72;;;-146.77;53.81
55410;BME280;41279;43.546;16.426;2022-08-01T03:38:18;52812.75;;;-146.77;52.68
55410;BME280;41279;43.546;16.426;2022-08-01T03:40:47;52808.75;;;-146.77;52.62
55410;BME280;41279;43.546;16.426;2022-08-01T03:43:19;52802.72;;;-146.77;53.30
55410;BME280;41279;43.546;16.426;2022-08-01T03:45:49;52812.75;;;-146.77;52.01
55410;BME280;41279;43.546;16.426;2022-08-01T03:48:22;52850.78;;;-146.77;51.40
55410;BME280;41279;43.546;16.426;2022-08-01T03:50:52;52822.75;;;-146.77;52.47
55410;BME280;41279;43.546;16.426;2022-08-01T03:53:22;52842.78;;;-146.77;52.04
55410;BME280;41279;43.546;16.426;2022-08-01T03:55:50;52800.72;;;-146.77;52.83
55410;BME280;41279;43.546;16.426;2022-08-01T03:58:16;52830.75;;;-146.77;52.50
55410;BME280;41279;43.546;16.426;2022-08-01T04:00:42;52824.75;;;-146.77;52.55
55410;BME280;41279;43.546;16.426;2022-08-01T04:03:08;52808.75;;;-146.77;52.89
55410;BME280;41279;43.546;16.426;2022-08-01T04:05:34;52820.75;;;-146.77;55.54
55410;BME280;41279;43.546;16.426;2022-08-01T04:08:01;52862.81;;;-146.77;64.50
55410;BME280;41279;43.546;16.426;2022-08-01T04:10:28;52890.84;;;-146.77;64.42
55410;BME280;41279;43.546;16.426;2022-08-01T04:12:53;52906.84;;;-146.77;70.33
55410;BME280;41279;43.546;16.426;2022-08-01T04:15:19;52922.88;;;-146.77;67.01
55410;BME280;41279;43.546;16.426;2022-08-01T04:17:45;52870.81;;;-146.77;65.38
55410;BME280;41279;43.546;16.426;2022-08-01T04:20:11;52886.81;;;-146.77;67.06
55410;BME280;41279;43.546;16.426;2022-08-01T04:22:37;52860.78;;;-146.77;65.93
55410;BME280;41279;43.546;16.426;2022-08-01T04:25:07;52872.81;;;-146.77;66.20
55410;BME280;41279;43.546;16.426;2022-08-01T04:27:44;52870.81;;;-146.77;66.28
55410;BME280;41279;43.546;16.426;2022-08-01T04:30:11;52854.78;;;-146.77;65.94
55410;BME280;41279;43.546;16.426;2022-08-01T04:32:41;52848.78;;;-146.77;60.04
55410;BME280;41279;43.546;16.426;2022-08-01T04:35:11;52872.81;;;-146.77;57.44
55410;BME280;41279;43.546;16.426;2022-08-01T04:37:38;52798.72;;;-146.77;54.11
55410;BME280;41279;43.546;16.426;2022-08-01T04:40:06;52908.84;;;-146.77;49.59
55410;BME280;41279;43.546;16.426;2022-08-01T04:42:35;52836.78;;;-146.77;47.10
55410;BME280;41279;43.546;16.426;2022-08-01T04:45:00;52832.75;;;-146.77;47.58
55410;BME280;41279;43.546;16.426;2022-08-01T04:47:26;52856.78;;;-146.77;46.84
55410;BME280;41279;43.546;16.426;2022-08-01T04:49:53;52824.75;;;-146.77;47.42
55410;BME280;41279;43.546;16.426;2022-08-01T04:52:18;52798.72;;;-146.77;47.40
55410;BME280;41279;43.546;16.426;2022-08-01T04:54:44;52828.75;;;-146.77;46.46
55410;BME280;41279;43.546;16.426;2022-08-01T04:57:11;52842.78;;;-146.77;46.26
55410;BME280;41279;43.546;16.426;2022-08-01T04:59:38;52836.78;;;-146.77;45.34
55410;BME280;41279;43.546;16.426;2022-08-01T05:02:07;52842.78;;;-146.77;46.26
55410;BME280;41279;43.546;16.426;2022-08-01T05:04:33;52834.78;;;-146.77;45.64
55410;BME280;41279;43.546;16.426;2022-08-01T05:06:59;52846.78;;;-146.77;45.39
55410;BME280;41279;43.546;16.426;2022-08-01T05:09:25;52850.78;;;-146.77;46.00
55410;BME280;41279;43.546;16.426;2022-08-01T05:11:50;52824.75;;;-146.77;45.29
55410;BME280;41279;43.546;16.426;2022-08-01T05:14:16;52846.78;;;-146.77;45.39
55410;BME280;41279;43.546;16.426;2022-08-01T05:16:41;52834.78;;;-146.77;44.80
55410;BME280;41279;43.546;16.426;2022-08-01T05:19:14;52854.78;;;-146.77;44.25
55410;BME280;41279;43.546;16.426;2022-08-01T05:21:39;52908.84;;;-146.77;43.47
55410;BME280;41279;43.546;16.426;2022-08-01T05:24:05;52910.84;;;-146.77;42.59
55410;BME280;41279;43.546;16.426;2022-08-01T05:26:31;52946.91;;;-146.77;41.24
55410;BME280;41279;43.546;16.426;2022-08-01T05:28:56;52974.94;;;-146.77;40.54
55410;BME280;41279;43.546;16.426;2022-08-01T05:31:28;52908.84;;;-146.77;41.99
55410;BME280;41279;43.546;16.426;2022-08-01T05:33:53;52944.91;;;-146.77;40.82
55410;BME280;41279;43.546;16.426;2022-08-01T05:36:19;52942.88;;;-146.77;41.26
55410;BME280;41279;43.546;16.426;2022-08-01T05:38:44;52882.81;;;-146.77;41.37
55410;BME280;41279;43.546;16.426;2022-08-01T05:41:10;52964.91;;;-146.77;39.55
55410;BME280;41279;43.546;16.426;2022-08-01T05:43:35;52938.88;;;-146.77;40.76
55410;BME280;41279;43.546;16.426;2022-08-01T05:46:01;52962.91;;;-146.77;40.30
55410;BME280;41279;43.546;16.426;2022-08-01T05:48:26;52986.94;;;-146.77;39.64
55410;BME280;41279;43.546;16.426;2022-08-01T05:50:53;53081.06;;;-146.77;37.68
55410;BME280;41279;43.546;16.426;2022-08-01T05:53:19;52924.88;;;-146.77;40.17
55410;BME280;41279;43.546;16.426;2022-08-01T05:55:44;52976.94;;;-146.77;39.95
55410;BME280;41279;43.546;16.426;2022-08-01T05:58:16;53119.09;;;-146.77;36.56
55410;BME280;41279;43.546;16.426;2022-08-01T06:00:41;53073.03;;;-146.77;38.92
55410;BME280;41279;43.546;16.426;2022-08-01T06:03:06;53079.06;;;-146.77;41.14
55410;BME280;41279;43.546;16.426;2022-08-01T06:05:32;53229.22;;;-146.77;39.36
55410;BME280;41279;43.546;16.426;2022-08-01T06:07:57;53191.19;;;-146.77;43.88
55410;BME280;41279;43.546;16.426;2022-08-01T06:10:23;53189.19;;;-146.77;37.31
55410;BME280;41279;43.546;16.426;2022-08-01T06:12:48;53139.13;;;-146.77;37.18
55410;BME280;41279;43.546;16.426;2022-08-01T06:15:14;53053.03;;;-146.77;38.51
55410;BME280;41279;43.546;16.426;2022-08-01T06:17:39;53031.00;;;-146.77;37.87
55410;BME280;41279;43.546;16.426;2022-08-01T06:20:07;52942.88;;;-146.77;37.80
55410;BME280;41279;43.546;16.426;2022-08-01T06:22:32;53063.03;;;-146.77;36.77
55410;BME280;41279;43.546;16.426;2022-08-01T06:24:58;53012.97;;;-146.77;39.25
55410;BME280;41279;43.546;16.426;2022-08-01T06:27:23;53006.97;;;-146.77;41.84
55410;BME280;41279;43.546;16.426;2022-08-01T06:29:51;53037.00;;;-146.77;38.48
55410;BME280;41279;43.546;16.426;2022-08-01T06:32:19;53151.13;;;-146.77;38.62
55410;BME280;41279;43.546;16.426;2022-08-01T06:34:44;53223.22;;;-146.77;37.11
55410;BME280;41279;43.546;16.426;2022-08-01T06:37:09;53307.31;;;-146.77;36.58
55410;BME280;41279;43.546;16.426;2022-08-01T06:39:35;53437.50;;;-146.77;34.99
55410;BME280;41279;43.546;16.426;2022-08-01T06:42:01;53287.31;;;-146.77;31.66
55410;BME280;41279;43.546;16.426;2022-08-01T06:44:26;53215.22;;;-146.77;32.94
55410;BME280;41279;43.546;16.426;2022-08-01T06:46:51;53313.34;;;-146.77;32.76
55410;BME280;41279;43.546;16.426;2022-08-01T06:49:17;53241.25;;;-146.77;33.65
55410;BME280;41279;43.546;16.426;2022-08-01T06:51:42;53225.22;;;-146.77;33.02
55410;BME280;41279;43.546;16.426;2022-08-01T06:54:07;53145.13;;;-146.77;34.21
55410;BME280;41279;43.546;16.426;2022-08-01T06:56:33;53037.00;;;-146.77;35.02
55410;BME280;41279;43.546;16.426;2022-08-01T06:59:00;53111.09;;;-146.77;34.09
55410;BME280;41279;43.546;16.426;2022-08-01T07:01:27;53133.13;;;-146.77;34.07
55410;BME280;41279;43.546;16.426;2022-08-01T07:03:53;53057.03;;;-146.77;34.78
55410;BME280;41279;43.546;16.426;2022-08-01T07:06:19;53008.97;;;-146.77;35.39
55410;BME280;41279;43.546;16.426;2022-08-01T07:08:44;53020.97;;;-146.77;34.84
55410;BME280;41279;43.546;16.426;2022-08-01T07:11:10;53065.03;;;-146.77;34.55
55410;BME280;41279;43.546;16.426;2022-08-01T07:13:35;53037.00;;;-146.77;34.69
55410;BME280;41279;43.546;16.426;2022-08-01T07:16:00;53165.16;;;-146.77;32.80
55410;BME280;41279;43.546;16.426;2022-08-01T07:18:26;53241.25;;;-146.77;33.02
55410;BME280;41279;43.546;16.426;2022-08-01T07:20:51;53063.03;;;-146.77;33.97
55410;BME280;41279;43.546;16.426;2022-08-01T07:23:17;53020.97;;;-146.77;34.80
55410;BME280;41279;43.546;16.426;2022-08-01T07:25:42;53027.00;;;-146.77;35.17
55410;BME280;41279;43.546;16.426;2022-08-01T07:28:07;53041.00;;;-146.77;34.63
55410;BME280;41279;43.546;16.426;2022-08-01T07:30:33;53002.97;;;-146.77;34.77
55410;BME280;41279;43.546;16.426;2022-08-01T07:32:58;53049.00;;;-146.77;33.82
55410;BME280;41279;43.546;16.426;2022-08-01T07:35:24;53000.97;;;-146.77;34.21
55410;BME280;41279;43.546;16.426;2022-08-01T07:37:49;53006.97;;;-146.77;34.92
55410;BME280;41279;43.546;16.426;2022-08-01T07:40:16;53099.06;;;-146.77;33.69
55410;BME280;41279;43.546;16.426;2022-08-01T07:42:42;53241.25;;;-146.77;32.68
55410;BME280;41279;43.546;16.426;2022-08-01T07:45:09;53153.13;;;-146.77;33.02
55410;BME280;41279;43.546;16.426;2022-08-01T07:47:35;53171.16;;;-146.77;32.45
55410;BME280;41279;43.546;16.426;2022-08-01T07:50:02;53181.16;;;-146.77;33.33
55410;BME280;41279;43.546;16.426;2022-08-01T07:52:27;53155.13;;;-146.77;33.16
55410;BME280;41279;43.546;16.426;2022-08-01T07:54:53;53127.09;;;-146.77;32.85
55410;BME280;41279;43.546;16.426;2022-08-01T07:57:19;53197.19;;;-146.77;32.91
55410;BME280;41279;43.546;16.426;2022-08-01T07:59:45;53317.34;;;-146.77;31.63
55410;BME280;41279;43.546;16.426;2022-08-01T08:02:10;53387.44;;;-146.77;30.91
55410;BME280;41279;43.546;16.426;2022-08-01T08:04:36;53355.38;;;-146.77;31.67
55410;BME280;41279;43.546;16.426;2022-08-01T08:07:01;53361.41;;;-146.77;33.11
55410;BME280;41279;43.546;16.426;2022-08-01T08:09:27;53395.44;;;-146.77;32.61
55410;BME280;41279;43.546;16.426;2022-08-01T08:11:52;53365.41;;;-146.77;30.90
55410;BME280;41279;43.546;16.426;2022-08-01T08:14:18;53143.13;;;-146.77;35.81
55410;BME280;41279;43.546;16.426;2022-08-01T08:16:44;53125.09;;;-146.77;34.01
55410;BME280;41279;43.546;16.426;2022-08-01T08:19:11;53175.16;;;-146.77;33.67
55410;BME280;41279;43.546;16.426;2022-08-01T08:21:37;53039.00;;;-146.77;35.37
55410;BME280;41279;43.546;16.426;2022-08-01T08:24:02;53191.19;;;-146.77;33.44
55410;BME280;41279;43.546;16.426;2022-08-01T08:26:51;53321.34;;;-146.77;30.92
55410;BME280;41279;43.546;16.426;2022-08-01T08:29:19;53161.16;;;-146.77;31.81
55410;BME280;41279;43.546;16.426;2022-08-01T08:31:44;53177.16;;;-146.77;31.92
55410;BME280;41279;43.546;16.426;2022-08-01T08:34:10;53203.19;;;-146.77;32.66
55410;BME280;41279;43.546;16.426;2022-08-01T08:36:36;53173.16;;;-146.77;32.56
55410;BME280;41279;43.546;16.426;2022-08-01T08:39:02;53339.38;;;-146.77;31.33
55410;BME280;41279;43.546;16.426;2022-08-01T08:41:32;53351.38;;;-146.77;30.48
55410;BME280;41279;43.546;16.426;2022-08-01T08:43:58;53263.28;;;-146.77;31.51
55410;BME280;41279;43.546;16.426;2022-08-01T08:46:26;53225.22;;;-146.77;33.70
55410;BME280;41279;43.546;16.426;2022-08-01T08:48:52;53137.13;;;-146.77;32.98
55410;BME280;41279;43.546;16.426;2022-08-01T08:51:18;53241.25;;;-146.77;32.88
55410;BME280;41279;43.546;16.426;2022-08-01T08:53:46;53207.22;;;-146.77;34.96
55410;BME280;41279;43.546;16.426;2022-08-01T08:56:13;53085.06;;;-146.77;33.73
55410;BME280;41279;43.546;16.426;2022-08-01T08:58:41;53211.22;;;-146.77;32.17
55410;BME280;41279;43.546;16.426;2022-08-01T09:01:08;53099.06;;;-146.77;33.76
55410;BME280;41279;43.546;16.426;2022-08-01T09:03:35;53129.09;;;-146.77;33.09
55410;BME280;41279;43.546;16.426;2022-08-01T09:06:01;53139.13;;;-146.77;33.96
55410;BME280;41279;43.546;16.426;2022-08-01T09:08:27;53241.25;;;-146.77;31.95
55410;BME280;41279;43.546;16.426;2022-08-01T09:10:52;53193.19;;;-146.77;32.97
55410;BME280;41279;43.546;16.426;2022-08-01T09:13:18;53101.06;;;-146.77;36.47
55410;BME280;41279;43.546;16.426;2022-08-01T09:15:54;53123.09;;;-146.77;40.37
55410;BME280;41279;43.546;16.426;2022-08-01T09:18:35;53047.00;;;-146.77;43.16
55410;BME280;41279;43.546;16.426;2022-08-01T09:21:17;53139.13;;;-146.77;39.50
55410;BME280;41279;43.546;16.426;2022-08-01T09:26:10;53111.09;;;-146.77;42.41
55410;BME280;41279;43.546;16.426;2022-08-01T09:28:37;53143.13;;;-146.77;50.77
55410;BME280;41279;43.546;16.426;2022-08-01T09:31:17;53285.31;;;-146.77;60.34
55410;BME280;41279;43.546;16.426;2022-08-01T09:36:12;53435.50;;;-146.77;61.15
55410;BME280;41279;43.546;16.426;2022-08-01T09:38:38;53293.31;;;-146.77;56.03
55410;BME280;41279;43.546;16.426;2022-08-01T09:41:03;53527.59;;;-146.77;59.17
55410;BME280;41279;43.546;16.426;2022-08-01T09:43:30;53321.34;;;-146.77;58.28
55410;BME280;41279;43.546;16.426;2022-08-01T09:45:57;53233.22;;;-146.77;56.53
55410;BME280;41279;43.546;16.426;2022-08-01T09:48:23;53307.31;;;-146.77;61.78
55410;BME280;41279;43.546;16.426;2022-08-01T09:50:50;53353.38;;;-146.77;59.64
55410;BME280;41279;43.546;16.426;2022-08-01T09:53:16;53271.28;;;-146.77;56.15
55410;BME280;41279;43.546;16.426;2022-08-01T09:55:42;53279.28;;;-146.77;58.43
55410;BME280;41279;43.546;16.426;2022-08-01T09:58:08;53487.56;;;-146.77;64.61
55410;BME280;41279;43.546;16.426;2022-08-01T10:00:35;53451.50;;;-146.77;63.66
55410;BME280;41279;43.546;16.426;2022-08-01T10:03:23;53627.75;;;-146.77;68.19
55410;BME280;41279;43.546;16.426;2022-08-01T10:05:49;53391.44;;;-146.77;63.38
55410;BME280;41279;43.546;16.426;2022-08-01T10:08:16;53305.31;;;-146.77;61.48
55410;BME280;41279;43.546;16.426;2022-08-01T10:10:43;53337.38;;;-146.77;64.61
55410;BME280;41279;43.546;16.426;2022-08-01T10:13:28;53331.34;;;-146.77;66.47
55410;BME280;41279;43.546;16.426;2022-08-01T10:15:53;53313.34;;;-146.77;62.63
55410;BME280;41279;43.546;16.426;2022-08-01T10:18:19;53345.38;;;-146.77;65.76
55410;BME280;41279;43.546;16.426;2022-08-01T10:20:45;53517.59;;;-146.77;72.09
55410;BME280;41279;43.546;16.426;2022-08-01T10:23:11;53533.63;;;-146.77;71.60
55410;BME280;41279;43.546;16.426;2022-08-01T10:25:40;53481.53;;;-146.77;68.03
55410;BME280;41279;43.546;16.426;2022-08-01T10:28:12;53449.50;;;-146.77;64.93
55410;BME280;41279;43.546;16.426;2022-08-01T10:30:47;53465.53;;;-146.77;61.62
55410;BME280;41279;43.546;16.426;2022-08-01T10:33:13;53465.53;;;-146.77;64.88
55410;BME280;41279;43.546;16.426;2022-08-01T10:35:40;53443.50;;;-146.77;60.90
55410;BME280;41279;43.546;16.426;2022-08-01T10:38:06;53299.31;;;-146.77;57.90
55410;BME280;41279;43.546;16.426;2022-08-01T10:40:32;53259.28;;;-146.77;56.14
55410;BME280;41279;43.546;16.426;2022-08-01T10:42:58;53263.28;;;-146.77;57.14
55410;BME280;41279;43.546;16.426;2022-08-01T10:45:24;53331.34;;;-146.77;59.42
55410;BME280;41279;43.546;16.426;2022-08-01T10:48:16;53365.41;;;-146.77;62.46
55410;BME280;41279;43.546;16.426;2022-08-01T10:50:48;53543.63;;;-146.77;63.36
55410;BME280;41279;43.546;16.426;2022-08-01T10:53:20;53449.50;;;-146.77;61.23
55410;BME280;41279;43.546;16.426;2022-08-01T10:58:20;53371.41;;;-146.77;51.77
55410;BME280;41279;43.546;16.426;2022-08-01T11:00:46;53451.50;;;-146.77;46.85
55410;BME280;41279;43.546;16.426;2022-08-01T11:03:11;53371.41;;;-146.77;56.75
55410;BME280;41279;43.546;16.426;2022-08-01T11:05:36;53283.28;;;-146.77;53.67
55410;BME280;41279;43.546;16.426;2022-08-01T11:08:08;53237.25;;;-146.77;60.82
55410;BME280;41279;43.546;16.426;2022-08-01T11:10:40;53415.47;;;-146.77;60.79
55410;BME280;41279;43.546;16.426;2022-08-01T11:13:08;53485.56;;;-146.77;65.11
55410;BME280;41279;43.546;16.426;2022-08-01T11:15:35;53529.59;;;-146.77;67.71
55410;BME280;41279;43.546;16.426;2022-08-01T11:18:02;53365.41;;;-146.77;57.19
55410;BME280;41279;43.546;16.426;2022-08-01T11:20:29;53469.53;;;-146.77;61.17
55410;BME280;41279;43.546;16.426;2022-08-01T11:30:52;53513.59;;;-146.77;68.29
55410;BME280;41279;43.546;16.426;2022-08-01T11:38:49;53381.41;;;-146.77;64.59
55410;BME280;41279;43.546;16.426;2022-08-01T11:41:27;53567.66;;;-146.77;70.22
55410;BME280;41279;43.546;16.426;2022-08-01T11:54:41;53844.03;;;-146.77;81.97
55410;BME280;41279;43.546;16.426;2022-08-01T11:57:18;53944.16;;;-146.77;74.82
55410;BME280;41279;43.546;16.426;2022-08-01T11:59:47;53691.81;;;-146.77;76.29
55410;BME280;41279;43.546;16.426;2022-08-01T12:02:25;53840.03;;;-146.77;77.76
55410;BME280;41279;43.546;16.426;2022-08-01T12:07:18;53920.13;;;-146.77;78.32
55410;BME280;41279;43.546;16.426;2022-08-01T12:09:47;53844.03;;;-146.77;79.92
55410;BME280;41279;43.546;16.426;2022-08-01T12:12:17;53948.19;;;-146.77;81.27
55410;BME280;41279;43.546;16.426;2022-08-01T12:14:43;53497.56;;;-146.77;70.17
55410;BME280;41279;43.546;16.426;2022-08-01T12:17:09;53735.88;;;-146.77;70.69
55410;BME280;41279;43.546;16.426;2022-08-01T12:19:34;53739.88;;;-146.77;68.26
55410;BME280;41279;43.546;16.426;2022-08-01T12:22:14;54034.28;;;-146.77;68.66
55410;BME280;41279;43.546;16.426;2022-08-01T12:24:42;54128.44;;;-146.77;76.19
55410;BME280;41279;43.546;16.426;2022-08-01T12:27:09;54282.66;;;-146.77;86.28
55410;BME280;41279;43.546;16.426;2022-08-01T12:29:40;54442.91;;;-146.77;91.92
55410;BME280;41279;43.546;16.426;2022-08-01T12:32:26;54993.78;;;-146.77;97.46
55410;BME280;41279;43.546;16.426;2022-08-01T12:34:54;53874.06;;;-146.77;78.80
55410;BME280;41279;43.546;16.426;2022-08-01T12:37:20;53755.91;;;-146.77;65.22
55410;BME280;41279;43.546;16.426;2022-08-01T12:39:46;53663.78;;;-146.77;63.86
55410;BME280;41279;43.546;16.426;2022-08-01T12:42:12;53547.63;;;-146.77;70.41
55410;BME280;41279;43.546;16.426;2022-08-01T12:44:39;53645.75;;;-146.77;69.87
55410;BME280;41279;43.546;16.426;2022-08-01T12:47:08;53791.97;;;-146.77;74.30
55410;BME280;41279;43.546;16.426;2022-08-01T12:49:37;53689.81;;;-146.77;74.85
55410;BME280;41279;43.546;16.426;2022-08-01T12:52:04;53824.00;;;-146.77;73.17
55410;BME280;41279;43.546;16.426;2022-08-01T12:54:29;53972.22;;;-146.77;75.52
55410;BME280;41279;43.546;16.426;2022-08-01T12:56:55;54032.28;;;-146.77;78.46
55410;BME280;41279;43.546;16.426;2022-08-01T12:59:24;54054.31;;;-146.77;75.33
55410;BME280;41279;43.546;16.426;2022-08-01T13:01:53;54038.31;;;-146.77;76.14
55410;BME280;41279;43.546;16.426;2022-08-01T13:04:22;54220.56;;;-146.77;72.22
55410;BME280;41279;43.546;16.426;2022-08-01T13:06:52;54316.72;;;-146.77;67.12
55410;BME280;41279;43.546;16.426;2022-08-01T13:09:18;54212.56;;;-146.77;75.86
55410;BME280;41279;43.546;16.426;2022-08-01T13:11:43;54120.41;;;-146.77;74.05
55410;BME280;41279;43.546;16.426;2022-08-01T13:14:09;54210.56;;;-146.77;75.20
55410;BME280;41279;43.546;16.426;2022-08-01T13:16:55;53986.22;;;-146.77;74.37